Main page
METAR-TAF:

METAR-TAF

Airports :

Vientiane, Laos

Wattay International Airport

latitude: 17-57N, longitude: 102-34E, elevation: 171 m

Current weather observation

The report was made 2 hours and 43 minutes ago, at 16:30 UTC
Calm wind
Temperature 28°C
Humidity 89%
Pressure 1006 hPa
Visibility: 4000 m
mist

METAR: VLVT 231630Z 00000KT 4000 BR NSC 28/26 Q1006 NOSIG

Time: 02:13 (19:13 UTC)

Forecast

The report was made 2 hours and 13 minutes ago, at 17:00 UTC
Forecast valid from 23 at 18 UTC to 24 at 18 UTC
Wind 4 kt from the Southwest
Visibility: 7000 m
Few clouds at a height of 2000 ft
Scattered clouds at a height of 5000 ft
Temporary
from 23 at 18 UTC to 23 at 22 UTC
Visibility: 3000 m
Scattered clouds at a height of 5000 ft
mist

TAF: VLVT 231700Z 2318/2418 22004KT 7000 FEW020 SCT050 TEMPO 2318/2322 3000 BR SCT050

Weather observations and forecasts of more than 4000 airports (METAR and TAF reports).

The available stations are represented by yellow and red dots on the map.

Hover mouse over dot to see the name of the station.

Then click to see weather observations and forecasts.

To change the map : click on the green buttons with a black cross to zoom in, on the green button with a dash to zoom out, or on the green arrows for adjacent maps.


METAR-TAF: